Time;durP1;ratioP1;P1;durP2;ratioP2;P2;SDS_P1;SDS_P2;PMS_P1;PMS_P2;Temp;Humidity;BMP_temperature;BMP_pressure;BME280_temperature;BME280_humidity;BME280_pressure;Samples;Min_cycle;Max_cycle;Signal;HPM_P1;HPM_P2
2022/07/13 00:00:01;;;;;;;4.77;3.20;;;;;;;;;;5054362;28;20021;-63
2022/07/13 00:02:28;;;;;;;3.70;2.70;;;;;;;;;;5054451;28;20025;-61
2022/07/13 00:04:54;;;;;;;5.00;2.53;;;;;;;;;;5060614;28;20119;-63
2022/07/13 00:07:21;;;;;;;4.47;2.80;;;;;;;;;;5074402;28;20016;-61
2022/07/13 00:09:48;;;;;;;4.27;2.47;;;;;;;;;;5065982;28;20025;-62
2022/07/13 00:12:14;;;;;;;7.13;2.70;;;;;;;;;;5048755;28;20082;-62
2022/07/13 00:14:42;;;;;;;4.73;2.70;;;;;;;;;;5049043;28;20037;-63
2022/07/13 00:17:09;;;;;;;5.23;3.13;;;;;;;;;;5049122;28;20025;-62
2022/07/13 00:19:35;;;;;;;7.67;3.00;;;;;;;;;;5053245;28;20052;-64
2022/07/13 00:22:02;;;;;;;5.53;3.03;;;;;;;;;;5073894;28;20021;-63
2022/07/13 00:24:29;;;;;;;6.87;3.70;;;;;;;;;;5074000;28;20071;-62
2022/07/13 00:26:55;;;;;;;10.10;3.53;;;;;;;;;;5073902;28;20017;-62
2022/07/13 00:29:22;;;;;;;5.27;3.07;;;;;;;;;;5073535;28;20036;-62
2022/07/13 00:31:49;;;;;;;3.43;2.43;;;;;;;;;;5072905;28;20423;-62
2022/07/13 00:34:15;;;;;;;6.10;3.13;;;;;;;;;;5068640;28;20540;-62
2022/07/13 00:36:42;;;;;;;13.10;3.07;;;;;;;;;;5060444;28;20499;-62
2022/07/13 00:39:09;;;;;;;4.83;3.13;;;;;;;;;;5048540;28;20480;-62
2022/07/13 00:41:35;;;;;;;6.10;3.40;;;;;;;;;;5048832;28;20464;-62
2022/07/13 00:44:09;;;;;;;4.83;3.43;;;;;;;;;;5052941;28;20053;-62
2022/07/13 00:46:36;;;;;;;5.70;3.07;;;;;;;;;;5059899;28;20375;-63
2022/07/13 00:49:04;;;;;;;3.87;2.40;;;;;;;;;;5061057;28;20036;-62
2022/07/13 00:51:31;;;;;;;3.20;2.10;;;;;;;;;;5053342;28;20544;-62
2022/07/13 00:53:58;;;;;;;5.37;2.90;;;;;;;;;;5052886;28;20037;-62
2022/07/13 00:56:25;;;;;;;2.80;2.23;;;;;;;;;;5048137;28;20025;-63
2022/07/13 00:58:52;;;;;;;5.43;3.33;;;;;;;;;;5049355;28;20086;-62
2022/07/13 01:01:19;;;;;;;5.50;3.23;;;;;;;;;;5047762;28;20028;-63
2022/07/13 01:03:45;;;;;;;7.17;2.70;;;;;;;;;;5047935;28;20021;-62
2022/07/13 01:06:12;;;;;;;4.60;3.17;;;;;;;;;;5068719;28;20082;-62
2022/07/13 01:08:39;;;;;;;9.30;4.47;;;;;;;;;;5072912;28;20099;-62
2022/07/13 01:11:05;;;;;;;8.03;2.83;;;;;;;;;;5073073;28;20039;-62
2022/07/13 01:13:32;;;;;;;11.73;3.60;;;;;;;;;;5072754;28;20028;-62
2022/07/13 01:15:59;;;;;;;7.70;3.57;;;;;;;;;;5059849;28;20025;-62
2022/07/13 01:18:26;;;;;;;6.93;3.73;;;;;;;;;;5048087;28;20021;-63
2022/07/13 01:20:53;;;;;;;6.93;3.53;;;;;;;;;;5048761;28;20029;-62
2022/07/13 01:23:19;;;;;;;5.10;3.23;;;;;;;;;;5048030;28;20029;-62
2022/07/13 01:25:46;;;;;;;7.67;3.73;;;;;;;;;;5047701;28;20342;-62
2022/07/13 01:28:14;;;;;;;6.50;2.67;;;;;;;;;;5062573;28;20028;-62
2022/07/13 01:30:40;;;;;;;6.80;3.53;;;;;;;;;;5069843;28;20025;-62
2022/07/13 01:33:07;;;;;;;5.83;3.33;;;;;;;;;;5057892;28;20029;-63
2022/07/13 01:35:34;;;;;;;5.63;2.83;;;;;;;;;;5052148;28;20060;-62
2022/07/13 01:38:00;;;;;;;6.10;3.77;;;;;;;;;;5052625;28;20029;-62
2022/07/13 01:40:27;;;;;;;4.53;3.10;;;;;;;;;;5053922;28;20035;-63
2022/07/13 01:42:54;;;;;;;11.33;3.77;;;;;;;;;;5063957;28;20070;-62
2022/07/13 01:45:24;;;;;;;4.80;3.10;;;;;;;;;;5064951;28;20067;-62
2022/07/13 01:47:52;;;;;;;7.20;3.57;;;;;;;;;;5065838;28;20025;-62
2022/07/13 01:50:20;;;;;;;5.20;3.17;;;;;;;;;;5050610;28;20090;-62
2022/07/13 01:52:47;;;;;;;9.40;4.90;;;;;;;;;;5051949;28;20096;-62
2022/07/13 01:55:14;;;;;;;4.80;3.27;;;;;;;;;;5053594;28;20513;-62
2022/07/13 01:57:41;;;;;;;11.63;4.13;;;;;;;;;;5072439;28;20028;-62
2022/07/13 02:00:11;;;;;;;8.97;4.17;;;;;;;;;;5071196;28;20023;-62
2022/07/13 02:02:38;;;;;;;9.73;4.37;;;;;;;;;;5048607;28;20100;-62
2022/07/13 02:05:05;;;;;;;6.43;3.07;;;;;;;;;;5047118;28;20033;-62
2022/07/13 02:07:31;;;;;;;6.43;3.43;;;;;;;;;;5048405;28;20458;-63
2022/07/13 02:09:58;;;;;;;6.23;3.57;;;;;;;;;;5048470;28;20487;-62
2022/07/13 02:12:25;;;;;;;10.20;4.20;;;;;;;;;;5052113;28;20029;-62
2022/07/13 02:14:52;;;;;;;7.13;3.47;;;;;;;;;;5052094;28;20032;-62
2022/07/13 02:17:18;;;;;;;7.53;3.83;;;;;;;;;;5052335;28;20052;-62
2022/07/13 02:19:45;;;;;;;6.33;3.77;;;;;;;;;;5052169;28;20021;-62
2022/07/13 02:22:12;;;;;;;6.03;3.90;;;;;;;;;;5053617;28;20025;-62
2022/07/13 02:24:39;;;;;;;7.47;4.07;;;;;;;;;;5068538;28;20037;-62
2022/07/13 02:27:05;;;;;;;9.13;3.83;;;;;;;;;;5067012;28;20479;-62
2022/07/13 02:29:32;;;;;;;7.40;3.73;;;;;;;;;;5067134;28;20028;-62
2022/07/13 02:31:59;;;;;;;4.07;2.77;;;;;;;;;;5061780;28;20488;-62
2022/07/13 02:34:28;;;;;;;4.53;2.93;;;;;;;;;;5050847;28;20057;-62
2022/07/13 02:36:56;;;;;;;11.07;3.77;;;;;;;;;;5071972;28;20028;-62
2022/07/13 02:39:23;;;;;;;6.33;3.73;;;;;;;;;;5071940;28;20086;-61
2022/07/13 02:41:50;;;;;;;3.60;2.93;;;;;;;;;;5069674;28;20028;-62
2022/07/13 02:44:16;;;;;;;4.43;3.23;;;;;;;;;;5071911;28;20036;-62
2022/07/13 02:46:43;;;;;;;4.20;3.03;;;;;;;;;;5069353;28;20151;-62
2022/07/13 02:49:10;;;;;;;4.40;3.00;;;;;;;;;;5054516;28;20025;-61
2022/07/13 02:51:37;;;;;;;5.50;3.30;;;;;;;;;;5046729;28;20047;-62
2022/07/13 02:54:03;;;;;;;11.37;3.60;;;;;;;;;;5046788;28;20029;-62
2022/07/13 02:56:30;;;;;;;4.57;3.23;;;;;;;;;;5048423;28;20392;-62
2022/07/13 02:58:57;;;;;;;6.13;3.57;;;;;;;;;;5051677;28;20357;-62
2022/07/13 03:01:24;;;;;;;5.90;3.20;;;;;;;;;;5051908;28;20032;-62
2022/07/13 03:03:51;;;;;;;16.70;3.37;;;;;;;;;;5051779;28;20080;-62
2022/07/13 03:06:18;;;;;;;6.50;3.43;;;;;;;;;;5070778;28;20037;-62
2022/07/13 03:08:45;;;;;;;15.03;2.60;;;;;;;;;;5069555;28;20095;-62
2022/07/13 03:11:11;;;;;;;6.03;3.10;;;;;;;;;;5066482;28;20017;-61
2022/07/13 03:13:38;;;;;;;5.93;3.50;;;;;;;;;;5069432;28;20078;-62
2022/07/13 03:16:05;;;;;;;6.37;3.63;;;;;;;;;;5068632;28;20056;-62
2022/07/13 03:18:33;;;;;;;4.83;2.70;;;;;;;;;;5051370;28;20078;-62
2022/07/13 03:21:00;;;;;;;7.33;3.37;;;;;;;;;;5055268;28;20025;-62
2022/07/13 03:23:26;;;;;;;8.67;3.43;;;;;;;;;;5055162;28;20107;-62
2022/07/13 03:25:53;;;;;;;5.17;3.40;;;;;;;;;;5054874;28;20039;-63
2022/07/13 03:28:20;;;;;;;6.30;3.37;;;;;;;;;;5056581;28;20052;-62
2022/07/13 03:30:46;;;;;;;4.63;3.47;;;;;;;;;;5072728;28;20024;-62
2022/07/13 03:33:13;;;;;;;8.03;3.37;;;;;;;;;;5054440;28;20472;-62
2022/07/13 03:35:40;;;;;;;8.00;3.87;;;;;;;;;;5049789;28;20021;-61
2022/07/13 03:38:06;;;;;;;4.00;2.73;;;;;;;;;;5049896;28;20021;-62
2022/07/13 03:40:33;;;;;;;4.60;3.23;;;;;;;;;;5051696;28;20048;-62
2022/07/13 03:43:00;;;;;;;5.13;3.10;;;;;;;;;;5074808;28;20024;-62
2022/07/13 03:45:26;;;;;;;6.73;3.67;;;;;;;;;;5074787;28;20040;-62
2022/07/13 03:47:53;;;;;;;4.63;3.33;;;;;;;;;;5072188;28;20082;-62
2022/07/13 03:50:20;;;;;;;7.97;3.50;;;;;;;;;;5054649;28;20025;-61
2022/07/13 03:52:47;;;;;;;8.27;3.27;;;;;;;;;;5054206;28;20125;-62
2022/07/13 03:55:14;;;;;;;4.97;3.43;;;;;;;;;;5069529;28;20071;-62
2022/07/13 03:57:41;;;;;;;3.97;2.77;;;;;;;;;;5069296;28;20037;-61
2022/07/13 04:00:08;;;;;;;5.60;2.77;;;;;;;;;;5069086;28;20107;-62
2022/07/13 04:02:34;;;;;;;5.13;2.90;;;;;;;;;;5069604;28;20039;-62
2022/07/13 04:05:01;;;;;;;8.77;2.87;;;;;;;;;;5071964;28;20032;-64
2022/07/13 04:07:28;;;;;;;5.23;2.90;;;;;;;;;;5054418;28;20064;-64
2022/07/13 04:09:54;;;;;;;4.03;2.03;;;;;;;;;;5054152;28;20032;-63
2022/07/13 04:12:21;;;;;;;3.50;2.90;;;;;;;;;;5062795;28;20028;-64
2022/07/13 04:14:48;;;;;;;8.17;3.43;;;;;;;;;;5071783;28;20525;-64
2022/07/13 04:17:15;;;;;;;4.37;3.10;;;;;;;;;;5066932;28;20024;-64
2022/07/13 04:19:42;;;;;;;4.73;2.83;;;;;;;;;;5068737;28;20020;-64
2022/07/13 04:22:09;;;;;;;5.47;3.17;;;;;;;;;;5068928;28;20036;-64
2022/07/13 04:24:35;;;;;;;3.70;2.80;;;;;;;;;;5067783;28;20064;-64
2022/07/13 04:27:02;;;;;;;6.33;2.70;;;;;;;;;;5057612;28;20032;-64
2022/07/13 04:29:29;;;;;;;4.90;2.50;;;;;;;;;;5053937;28;20159;-64
2022/07/13 04:31:55;;;;;;;5.13;3.00;;;;;;;;;;5058568;28;20049;-63
2022/07/13 04:34:22;;;;;;;4.20;3.17;;;;;;;;;;5072694;28;20046;-64
2022/07/13 04:36:49;;;;;;;3.33;2.37;;;;;;;;;;5073208;28;20028;-61
2022/07/13 04:39:15;;;;;;;5.10;2.97;;;;;;;;;;5068359;28;20032;-62
2022/07/13 04:41:42;;;;;;;4.60;3.07;;;;;;;;;;5068639;28;20024;-61
2022/07/13 04:44:09;;;;;;;3.83;2.77;;;;;;;;;;5063203;28;20048;-61
2022/07/13 04:46:35;;;;;;;10.27;3.33;;;;;;;;;;5048446;28;20097;-61
2022/07/13 04:49:02;;;;;;;5.50;3.67;;;;;;;;;;5053780;28;20036;-61
2022/07/13 04:51:29;;;;;;;8.80;3.70;;;;;;;;;;5053379;28;20028;-61
2022/07/13 04:53:57;;;;;;;6.33;4.00;;;;;;;;;;5052937;28;20399;-61
2022/07/13 04:56:23;;;;;;;3.77;2.93;;;;;;;;;;5053092;28;20052;-61
2022/07/13 04:58:50;;;;;;;6.37;3.07;;;;;;;;;;5056445;28;20086;-61
2022/07/13 05:01:17;;;;;;;4.80;3.27;;;;;;;;;;5068501;28;20047;-61
2022/07/13 05:03:43;;;;;;;4.63;3.07;;;;;;;;;;5068100;28;20021;-61
2022/07/13 05:06:10;;;;;;;3.40;2.40;;;;;;;;;;5068196;28;20027;-61
2022/07/13 05:08:37;;;;;;;5.17;3.17;;;;;;;;;;5067932;28;20066;-61
2022/07/13 05:11:04;;;;;;;4.27;2.87;;;;;;;;;;5066385;28;20035;-61
2022/07/13 05:13:30;;;;;;;5.43;3.13;;;;;;;;;;5053085;28;20032;-61
2022/07/13 05:15:57;;;;;;;3.33;2.77;;;;;;;;;;5066411;28;20052;-61
2022/07/13 05:18:23;;;;;;;5.33;3.40;;;;;;;;;;5072737;28;20055;-61
2022/07/13 05:20:50;;;;;;;5.80;3.67;;;;;;;;;;5072794;28;20052;-61
2022/07/13 05:23:17;;;;;;;8.97;3.70;;;;;;;;;;5068726;28;20054;-61
2022/07/13 05:25:43;;;;;;;5.37;3.37;;;;;;;;;;5056152;28;20507;-61
2022/07/13 05:28:10;;;;;;;4.37;3.13;;;;;;;;;;5047795;28;20048;-61
2022/07/13 05:30:37;;;;;;;7.43;3.77;;;;;;;;;;5047500;28;20075;-61
2022/07/13 05:33:04;;;;;;;5.73;3.47;;;;;;;;;;5065063;28;20031;-61
2022/07/13 05:35:31;;;;;;;5.77;3.47;;;;;;;;;;5072471;28;20054;-62
2022/07/13 05:37:58;;;;;;;6.97;3.13;;;;;;;;;;5071452;28;20021;-61
2022/07/13 05:40:24;;;;;;;6.77;3.67;;;;;;;;;;5072623;28;20016;-62
2022/07/13 05:42:52;;;;;;;4.00;2.87;;;;;;;;;;5072023;28;20027;-69
2022/07/13 05:45:19;;;;;;;4.50;3.27;;;;;;;;;;5068793;28;20079;-68
2022/07/13 05:47:46;;;;;;;3.40;2.13;;;;;;;;;;5066269;28;20040;-69
2022/07/13 05:50:14;;;;;;;4.93;3.37;;;;;;;;;;5065027;28;20051;-70
2022/07/13 05:52:41;;;;;;;4.27;2.90;;;;;;;;;;5067478;28;20238;-67
2022/07/13 05:55:08;;;;;;;11.13;4.17;;;;;;;;;;5070200;28;20036;-69
2022/07/13 05:57:35;;;;;;;6.13;3.27;;;;;;;;;;5062844;28;20091;-63
2022/07/13 06:00:02;;;;;;;6.20;3.97;;;;;;;;;;5052103;28;20049;-63
2022/07/13 06:02:29;;;;;;;8.10;4.70;;;;;;;;;;5052254;28;20021;-62
2022/07/13 06:04:55;;;;;;;7.57;2.97;;;;;;;;;;5052416;28;20392;-63
2022/07/13 06:07:22;;;;;;;5.27;3.43;;;;;;;;;;5055890;28;20023;-66
2022/07/13 06:09:49;;;;;;;3.27;2.80;;;;;;;;;;5067358;28;20029;-66
2022/07/13 06:12:16;;;;;;;4.00;3.13;;;;;;;;;;5067147;28;20025;-63
2022/07/13 06:14:42;;;;;;;5.10;3.73;;;;;;;;;;5066923;28;20020;-62
2022/07/13 06:17:09;;;;;;;4.93;3.67;;;;;;;;;;5069848;28;20099;-62
2022/07/13 06:19:36;;;;;;;8.13;4.10;;;;;;;;;;5060708;28;20060;-62
2022/07/13 06:22:02;;;;;;;8.33;3.87;;;;;;;;;;5052120;28;20423;-62
2022/07/13 06:24:29;;;;;;;8.10;4.37;;;;;;;;;;5051924;28;20139;-62
2022/07/13 06:26:56;;;;;;;4.50;3.07;;;;;;;;;;5052153;28;20495;-62
2022/07/13 06:29:22;;;;;;;6.97;4.17;;;;;;;;;;5049404;28;20627;-62
2022/07/13 06:31:49;;;;;;;4.63;3.10;;;;;;;;;;5052814;28;20026;-61
2022/07/13 06:34:16;;;;;;;10.23;4.07;;;;;;;;;;5046933;28;20028;-61
2022/07/13 06:36:43;;;;;;;5.17;4.00;;;;;;;;;;5048072;28;20036;-65
2022/07/13 06:39:09;;;;;;;6.57;3.03;;;;;;;;;;5048892;28;20048;-63
2022/07/13 06:41:36;;;;;;;4.93;3.90;;;;;;;;;;5052075;28;20100;-62
2022/07/13 06:44:03;;;;;;;5.40;4.47;;;;;;;;;;5051736;28;20472;-61
2022/07/13 06:46:29;;;;;;;6.20;3.80;;;;;;;;;;5069117;28;20029;-61
2022/07/13 06:48:56;;;;;;;7.67;4.47;;;;;;;;;;5075251;28;20038;-61
2022/07/13 06:51:23;;;;;;;5.67;3.63;;;;;;;;;;5073393;28;20387;-62
2022/07/13 06:53:50;;;;;;;5.93;4.43;;;;;;;;;;5070161;28;20039;-61
2022/07/13 06:56:16;;;;;;;5.57;3.97;;;;;;;;;;5054784;28;20025;-61
2022/07/13 06:58:44;;;;;;;4.40;3.33;;;;;;;;;;5050633;28;20044;-61
2022/07/13 07:01:10;;;;;;;5.90;3.87;;;;;;;;;;5051831;28;20056;-61
2022/07/13 07:03:37;;;;;;;3.57;2.80;;;;;;;;;;5055475;28;20028;-61
2022/07/13 07:06:04;;;;;;;13.47;3.73;;;;;;;;;;5054869;28;20067;-61
2022/07/13 07:08:31;;;;;;;6.47;5.00;;;;;;;;;;5069234;28;20032;-61
2022/07/13 07:10:58;;;;;;;6.97;4.90;;;;;;;;;;5075360;28;20024;-61
2022/07/13 07:13:24;;;;;;;5.67;4.10;;;;;;;;;;5073046;28;20100;-61
2022/07/13 07:15:52;;;;;;;5.17;4.13;;;;;;;;;;5069892;28;20446;-61
2022/07/13 07:18:21;;;;;;;5.07;3.70;;;;;;;;;;5069902;28;20402;-61
2022/07/13 07:20:48;;;;;;;8.10;4.17;;;;;;;;;;5050457;28;20132;-61
2022/07/13 07:23:16;;;;;;;6.93;4.40;;;;;;;;;;5051119;28;20031;-61
2022/07/13 07:25:42;;;;;;;5.33;4.27;;;;;;;;;;5054691;28;20040;-61
2022/07/13 07:28:09;;;;;;;6.03;4.43;;;;;;;;;;5055024;28;20105;-61
2022/07/13 07:30:36;;;;;;;6.13;4.30;;;;;;;;;;5054677;28;20017;-61
2022/07/13 07:33:03;;;;;;;6.77;4.13;;;;;;;;;;5072951;28;20031;-61
2022/07/13 07:35:30;;;;;;;4.80;3.93;;;;;;;;;;5073261;28;20059;-61
2022/07/13 07:37:57;;;;;;;4.97;3.53;;;;;;;;;;5069113;28;20383;-62
2022/07/13 07:40:24;;;;;;;6.87;3.80;;;;;;;;;;5069615;28;20052;-61
2022/07/13 07:42:50;;;;;;;12.53;4.27;;;;;;;;;;5069489;28;20104;-61
2022/07/13 07:45:17;;;;;;;11.97;4.27;;;;;;;;;;5052043;28;20123;-61
2022/07/13 07:47:44;;;;;;;6.07;4.43;;;;;;;;;;5054361;28;20017;-61
2022/07/13 07:50:11;;;;;;;6.73;4.33;;;;;;;;;;5054465;28;20112;-61
2022/07/13 07:52:38;;;;;;;6.77;4.07;;;;;;;;;;5054471;28;20021;-61
2022/07/13 07:55:05;;;;;;;5.57;3.93;;;;;;;;;;5054009;28;20468;-61
2022/07/13 07:57:31;;;;;;;5.10;3.87;;;;;;;;;;5072734;28;20240;-61
2022/07/13 07:59:58;;;;;;;8.73;5.03;;;;;;;;;;5069134;28;20469;-61
2022/07/13 08:02:25;;;;;;;5.70;3.47;;;;;;;;;;5069064;28;20483;-61
2022/07/13 08:04:51;;;;;;;6.10;3.87;;;;;;;;;;5068857;28;20601;-61
2022/07/13 08:07:18;;;;;;;4.63;3.70;;;;;;;;;;5069138;28;20028;-61
2022/07/13 08:09:45;;;;;;;6.73;4.40;;;;;;;;;;5073554;28;20025;-61
2022/07/13 08:12:11;;;;;;;4.77;3.80;;;;;;;;;;5074213;28;20024;-61
2022/07/13 08:14:38;;;;;;;3.97;3.37;;;;;;;;;;5074238;28;20028;-61
2022/07/13 08:17:05;;;;;;;5.93;4.33;;;;;;;;;;5073993;28;20082;-61
2022/07/13 08:19:31;;;;;;;9.77;4.50;;;;;;;;;;5071232;28;20020;-61
2022/07/13 08:21:58;;;;;;;8.67;4.43;;;;;;;;;;5048750;28;20488;-61
2022/07/13 08:24:25;;;;;;;6.23;4.53;;;;;;;;;;5048601;28;20094;-61
2022/07/13 08:26:53;;;;;;;5.53;3.57;;;;;;;;;;5048217;28;20052;-61
2022/07/13 08:29:19;;;;;;;5.30;3.60;;;;;;;;;;5048493;28;20028;-61
2022/07/13 08:31:46;;;;;;;5.37;3.87;;;;;;;;;;5055389;28;20025;-61
2022/07/13 08:39:44;;;;;;;20.08;5.18;;;;;;;;;;5071707;28;20596;-61
2022/07/13 08:42:13;;;;;;;8.90;5.20;;;;;;;;;;5055181;28;20070;-61
2022/07/13 08:44:40;;;;;;;3.83;3.27;;;;;;;;;;5048240;28;20040;-60
2022/07/13 08:47:07;;;;;;;6.17;4.70;;;;;;;;;;5048314;28;20051;-61
2022/07/13 08:49:34;;;;;;;6.70;4.10;;;;;;;;;;5047915;28;20021;-62
2022/07/13 08:52:01;;;;;;;6.67;4.43;;;;;;;;;;5062909;28;20029;-61
2022/07/13 08:54:29;;;;;;;6.10;3.73;;;;;;;;;;5073185;28;20024;-61
2022/07/13 08:56:56;;;;;;;6.17;4.07;;;;;;;;;;5058010;28;20037;-61
2022/07/13 08:59:23;;;;;;;5.43;3.80;;;;;;;;;;5053350;28;20100;-61
2022/07/13 09:01:50;;;;;;;5.77;4.60;;;;;;;;;;5053104;28;20438;-60
2022/07/13 09:04:17;;;;;;;4.87;4.00;;;;;;;;;;5052128;28;20067;-61
2022/07/13 09:06:44;;;;;;;5.87;4.00;;;;;;;;;;5059264;28;20028;-60
2022/07/13 09:09:27;;;;;;;6.13;3.53;;;;;;;;;;5067433;28;20048;-60
2022/07/13 09:11:53;;;;;;;5.43;3.60;;;;;;;;;;5067389;28;20055;-61
2022/07/13 09:14:26;;;;;;;6.97;3.63;;;;;;;;;;5068426;28;20025;-61
2022/07/13 09:16:53;;;;;;;5.60;4.23;;;;;;;;;;5072833;28;20021;-61
2022/07/13 09:19:25;;;;;;;8.20;3.00;;;;;;;;;;5055411;28;20079;-60
2022/07/13 09:21:52;;;;;;;5.77;3.67;;;;;;;;;;5052696;28;20112;-60
2022/07/13 09:24:18;;;;;;;6.47;3.23;;;;;;;;;;5052741;28;20025;-61
2022/07/13 09:26:46;;;;;;;4.63;3.67;;;;;;;;;;5051407;28;20427;-61
2022/07/13 09:29:13;;;;;;;6.37;4.53;;;;;;;;;;5048471;28;20048;-62
2022/07/13 09:31:50;;;;;;;5.07;4.30;;;;;;;;;;5067338;28;20063;-60
2022/07/13 09:34:17;;;;;;;4.60;3.87;;;;;;;;;;5067374;28;20033;-61
2022/07/13 09:36:44;;;;;;;6.83;4.43;;;;;;;;;;5068621;28;20032;-60
2022/07/13 09:39:11;;;;;;;5.97;4.43;;;;;;;;;;5072457;28;20055;-60
2022/07/13 09:41:38;;;;;;;6.83;4.97;;;;;;;;;;5066679;28;20376;-61
2022/07/13 09:46:58;;;;;;;9.03;4.23;;;;;;;;;;5052566;28;20492;-61
2022/07/13 09:49:30;;;;;;;6.60;4.82;;;;;;;;;;5049983;28;20430;-61
2022/07/13 09:51:58;;;;;;;4.37;3.47;;;;;;;;;;5047276;28;20017;-61
2022/07/13 09:54:28;;;;;;;6.77;4.30;;;;;;;;;;5057377;28;20040;-61
2022/07/13 09:56:58;;;;;;;5.27;4.77;;;;;;;;;;5067122;28;20537;-61
2022/07/13 09:59:25;;;;;;;7.03;4.23;;;;;;;;;;5069127;28;20021;-60
2022/07/13 10:01:52;;;;;;;5.80;4.23;;;;;;;;;;5072321;28;20025;-60
2022/07/13 10:04:19;;;;;;;6.03;4.67;;;;;;;;;;5072102;28;20025;-60
2022/07/13 10:06:46;;;;;;;7.50;4.60;;;;;;;;;;5055716;28;20535;-60
2022/07/13 10:09:13;;;;;;;9.80;4.20;;;;;;;;;;5052046;28;20078;-60
2022/07/13 10:11:40;;;;;;;4.67;3.67;;;;;;;;;;5049356;28;20419;-61
2022/07/13 10:14:06;;;;;;;4.43;3.83;;;;;;;;;;5046861;28;20025;-61
2022/07/13 10:16:33;;;;;;;5.17;4.67;;;;;;;;;;5046863;28;20476;-61
2022/07/13 10:19:04;;;;;;;8.07;5.20;;;;;;;;;;5065329;28;20028;-60
2022/07/13 10:21:49;;;;;;;7.70;5.47;;;;;;;;;;5069081;28;20051;-60
2022/07/13 10:24:16;;;;;;;6.97;4.70;;;;;;;;;;5076036;28;20123;-61
2022/07/13 10:26:43;;;;;;;8.33;5.20;;;;;;;;;;5076124;28;20031;-60
2022/07/13 10:29:11;;;;;;;7.03;4.63;;;;;;;;;;5071371;28;20036;-61
2022/07/13 10:31:38;;;;;;;6.50;4.23;;;;;;;;;;5056053;28;20047;-60
2022/07/13 10:34:06;;;;;;;3.60;3.10;;;;;;;;;;5052911;28;20036;-60
2022/07/13 10:36:52;;;;;;;5.97;5.10;;;;;;;;;;5050240;28;20104;-61
2022/07/13 10:39:25;;;;;;;7.77;4.10;;;;;;;;;;5050536;28;20087;-61
2022/07/13 10:42:05;;;;;;;6.77;4.87;;;;;;;;;;5059049;28;20033;-61
2022/07/13 10:44:32;;;;;;;4.27;3.87;;;;;;;;;;5073596;28;20111;-61
2022/07/13 10:46:59;;;;;;;4.30;3.77;;;;;;;;;;5075789;28;20073;-60
2022/07/13 10:49:32;;;;;;;6.07;4.83;;;;;;;;;;5075683;28;20028;-60
2022/07/13 10:52:17;;;;;;;6.03;4.27;;;;;;;;;;5075632;28;20104;-60
2022/07/13 10:55:13;;;;;;;6.22;3.70;;;;;;;;;;5059683;28;20036;-60
2022/07/13 10:57:43;;;;;;;4.40;3.80;;;;;;;;;;5050231;28;20430;-60
2022/07/13 11:02:55;;;;;;;4.93;3.60;;;;;;;;;;5049757;28;20083;-60
2022/07/13 11:05:25;;;;;;;4.78;3.88;;;;;;;;;;5054227;28;20043;-61
2022/07/13 11:07:52;;;;;;;6.97;4.00;;;;;;;;;;5075163;28;20029;-60
2022/07/13 11:10:33;;;;;;;5.37;3.30;;;;;;;;;;5075312;28;20027;-60
2022/07/13 11:13:01;;;;;;;5.37;3.30;;;;;;;;;;5074467;28;20033;-60
2022/07/13 11:15:46;;;;;;;3.07;2.50;;;;;;;;;;5075282;28;20029;-60
2022/07/13 11:18:22;;;;;;;3.50;2.63;;;;;;;;;;5063269;28;20391;-61
2022/07/13 11:21:03;;;;;;;3.10;2.57;;;;;;;;;;5049873;28;20383;-60
2022/07/13 11:26:34;;;;;;;4.47;3.37;;;;;;;;;;5049749;28;20087;-60
2022/07/13 11:29:00;;;;;;;;;;;;;;;;;;5053656;28;20045;-60
2022/07/13 11:31:27;;;;;;;4.00;3.03;;;;;;;;;;5072989;28;19919;-60
2022/07/13 11:33:54;;;;;;;5.37;2.97;;;;;;;;;;5074389;28;20024;-60
2022/07/13 11:36:24;;;;;;;3.23;2.50;;;;;;;;;;5074805;28;20031;-60
2022/07/13 11:38:52;;;;;;;3.67;2.90;;;;;;;;;;5074734;28;20028;-61
2022/07/13 11:41:20;;;;;;;6.97;3.07;;;;;;;;;;5070415;28;20104;-60
2022/07/13 11:43:49;;;;;;;4.70;2.63;;;;;;;;;;5049685;28;20021;-60
2022/07/13 11:46:25;;;;;;;8.27;3.20;;;;;;;;;;5049320;28;20094;-60
2022/07/13 11:48:59;;;;;;;8.60;2.73;;;;;;;;;;5049448;28;20571;-60
2022/07/13 11:51:26;;;;;;;4.33;3.23;;;;;;;;;;5053440;28;20017;-60
2022/07/13 11:53:53;;;;;;;4.33;3.27;;;;;;;;;;5057828;28;20422;-60
2022/07/13 11:56:20;;;;;;;3.17;2.57;;;;;;;;;;5074298;28;20021;-60
2022/07/13 11:58:47;;;;;;;3.87;2.87;;;;;;;;;;5074363;28;20093;-60
2022/07/13 12:01:16;;;;;;;4.77;2.97;;;;;;;;;;5074469;28;20024;-61
2022/07/13 12:03:48;;;;;;;5.17;2.40;;;;;;;;;;5069524;28;20020;-60
2022/07/13 12:06:14;;;;;;;4.53;2.80;;;;;;;;;;5063606;28;20033;-60
2022/07/13 12:08:42;;;;;;;2.97;2.20;;;;;;;;;;5048613;28;20033;-61
2022/07/13 12:11:10;;;;;;;2.67;2.13;;;;;;;;;;5049072;28;20025;-60
2022/07/13 12:13:38;;;;;;;2.77;2.07;;;;;;;;;;5052907;28;20098;-60
2022/07/13 12:16:05;;;;;;;8.53;2.53;;;;;;;;;;5054221;28;20470;-60
2022/07/13 12:18:51;;;;;;;7.50;2.50;;;;;;;;;;5062988;28;20066;-60
2022/07/13 12:21:18;;;;;;;3.90;2.47;;;;;;;;;;5073745;28;20025;-60
2022/07/13 12:23:48;;;;;;;7.43;2.40;;;;;;;;;;5073939;28;20025;-60
2022/07/13 12:26:15;;;;;;;2.50;1.70;;;;;;;;;;5068648;28;20458;-61
2022/07/13 12:28:44;;;;;;;1.80;1.60;;;;;;;;;;5068699;28;20036;-60
2022/07/13 12:31:11;;;;;;;3.43;2.60;;;;;;;;;;5055102;28;20475;-60
2022/07/13 12:33:42;;;;;;;9.90;3.03;;;;;;;;;;5048355;28;20409;-60
2022/07/13 12:36:10;;;;;;;4.00;2.90;;;;;;;;;;5053326;28;20021;-60
2022/07/13 12:38:52;;;;;;;3.63;2.30;;;;;;;;;;5053517;28;20021;-60
2022/07/13 12:41:28;;;;;;;2.33;1.97;;;;;;;;;;5053632;28;20013;-61
2022/07/13 12:43:56;;;;;;;2.17;1.57;;;;;;;;;;5068673;28;20100;-60
2022/07/13 12:46:22;;;;;;;2.07;1.70;;;;;;;;;;5072320;28;20032;-60
2022/07/13 12:48:59;;;;;;;3.00;2.63;;;;;;;;;;5068121;28;20027;-60
2022/07/13 12:51:25;;;;;;;4.37;2.97;;;;;;;;;;5067950;28;20021;-60
2022/07/13 12:53:53;;;;;;;16.87;2.70;;;;;;;;;;5066612;28;20031;-60
2022/07/13 12:56:21;;;;;;;4.10;1.80;;;;;;;;;;5048263;28;20115;-60
2022/07/13 12:59:08;;;;;;;4.77;1.90;;;;;;;;;;5053170;28;20055;-60
2022/07/13 13:01:36;;;;;;;1.53;1.40;;;;;;;;;;5053235;28;20060;-60
2022/07/13 13:04:04;;;;;;;2.47;1.87;;;;;;;;;;5053092;28;20075;-60
2022/07/13 13:06:33;;;;;;;1.63;1.33;;;;;;;;;;5060610;28;20487;-60
2022/07/13 13:09:07;;;;;;;3.30;2.43;;;;;;;;;;5071276;28;20029;-60
2022/07/13 13:11:34;;;;;;;2.87;2.37;;;;;;;;;;5067642;28;20024;-60
2022/07/13 13:14:01;;;;;;;2.47;1.87;;;;;;;;;;5067843;28;20021;-61
2022/07/13 13:16:27;;;;;;;6.90;2.63;;;;;;;;;;5067689;28;20468;-60
2022/07/13 13:18:54;;;;;;;4.43;2.57;;;;;;;;;;5059266;28;20388;-60
2022/07/13 13:21:21;;;;;;;4.43;2.17;;;;;;;;;;5052585;28;20357;-60
2022/07/13 13:23:47;;;;;;;1.97;1.50;;;;;;;;;;5052692;28;20025;-61
2022/07/13 13:26:14;;;;;;;3.63;2.17;;;;;;;;;;5052770;28;20510;-60
2022/07/13 13:31:26;;;;;;;3.67;2.33;;;;;;;;;;5064474;28;20125;-60
2022/07/13 13:33:52;;;;;;;1.97;1.70;;;;;;;;;;5067040;28;20042;-60
2022/07/13 13:36:19;;;;;;;3.57;2.17;;;;;;;;;;5067523;28;20028;-61
2022/07/13 13:38:46;;;;;;;3.30;2.00;;;;;;;;;;5067246;28;20475;-60
2022/07/13 13:41:13;;;;;;;4.73;2.73;;;;;;;;;;5068442;28;20027;-60
2022/07/13 13:43:39;;;;;;;3.63;2.37;;;;;;;;;;5058142;28;20111;-61
2022/07/13 13:46:06;;;;;;;3.70;2.03;;;;;;;;;;5052275;28;20063;-60
2022/07/13 13:48:33;;;;;;;3.13;2.30;;;;;;;;;;5052424;28;20017;-60
2022/07/13 13:50:59;;;;;;;4.67;2.17;;;;;;;;;;5051883;28;20432;-61
2022/07/13 13:53:26;;;;;;;5.43;3.53;;;;;;;;;;5050883;28;20556;-61
2022/07/13 13:55:53;;;;;;;6.50;3.63;;;;;;;;;;5063463;28;20028;-61
2022/07/13 13:58:19;;;;;;;3.43;2.57;;;;;;;;;;5067240;28;20458;-61
2022/07/13 14:00:46;;;;;;;3.80;3.00;;;;;;;;;;5067052;28;20017;-60
2022/07/13 14:03:13;;;;;;;4.93;2.87;;;;;;;;;;5067525;28;20033;-61
2022/07/13 14:05:39;;;;;;;7.30;3.53;;;;;;;;;;5070895;28;20421;-61
2022/07/13 14:08:06;;;;;;;3.60;2.67;;;;;;;;;;5051940;28;20025;-61
2022/07/13 14:10:33;;;;;;;6.63;3.83;;;;;;;;;;5052327;28;20090;-61
2022/07/13 14:12:59;;;;;;;5.07;3.33;;;;;;;;;;5052311;28;20021;-61
2022/07/13 14:15:26;;;;;;;5.93;4.10;;;;;;;;;;5050974;28;20545;-61
2022/07/13 14:17:53;;;;;;;8.60;4.13;;;;;;;;;;5048128;28;20070;-61
2022/07/13 14:20:21;;;;;;;5.60;3.87;;;;;;;;;;5063177;28;20463;-61
2022/07/13 14:22:48;;;;;;;5.03;4.07;;;;;;;;;;5066706;28;20494;-61
2022/07/13 14:25:15;;;;;;;6.27;4.23;;;;;;;;;;5067304;28;20045;-61
2022/07/13 14:27:41;;;;;;;5.73;3.87;;;;;;;;;;5072167;28;20053;-61
2022/07/13 14:30:08;;;;;;;7.93;4.27;;;;;;;;;;5069778;28;20484;-61
2022/07/13 14:32:35;;;;;;;9.43;5.10;;;;;;;;;;5051935;28;20021;-61
2022/07/13 14:35:02;;;;;;;8.03;4.20;;;;;;;;;;5054020;28;20124;-61
2022/07/13 14:37:29;;;;;;;8.63;5.30;;;;;;;;;;5070714;28;20024;-62
2022/07/13 14:39:55;;;;;;;9.00;6.10;;;;;;;;;;5066628;28;20027;-61
2022/07/13 14:42:22;;;;;;;9.70;6.57;;;;;;;;;;5066773;28;20410;-61
2022/07/13 14:44:49;;;;;;;7.33;5.03;;;;;;;;;;5053865;28;20091;-61
2022/07/13 14:47:15;;;;;;;7.57;4.77;;;;;;;;;;5046546;28;20028;-61
2022/07/13 14:49:42;;;;;;;9.80;5.67;;;;;;;;;;5051682;28;20025;-62
2022/07/13 14:52:09;;;;;;;6.90;4.77;;;;;;;;;;5071679;28;20056;-61
2022/07/13 14:54:36;;;;;;;28.70;5.00;;;;;;;;;;5071095;28;20044;-61
2022/07/13 14:57:02;;;;;;;12.03;5.87;;;;;;;;;;5071820;28;20025;-62
2022/07/13 14:59:29;;;;;;;8.07;5.50;;;;;;;;;;5071705;28;20025;-61
2022/07/13 15:01:56;;;;;;;7.30;4.43;;;;;;;;;;5048895;28;20025;-61